createdAt,value
2022-09-04T00:05:02.290Z,100.00
2022-09-04T00:10:09.853Z,100.00
2022-09-04T00:15:19.509Z,100.00
2022-09-04T00:20:57.599Z,100.00
2022-09-04T00:26:06.611Z,100.00
2022-09-04T00:31:26.187Z,100.00
2022-09-04T00:36:29.744Z,100.00
2022-09-04T00:41:53.893Z,100.00
2022-09-04T00:47:39.130Z,100.00
2022-09-04T00:52:45.287Z,100.00
2022-09-04T00:57:59.689Z,100.00
2022-09-04T01:03:27.597Z,100.00
2022-09-04T01:08:35.184Z,100.00
2022-09-04T01:13:45.378Z,100.00
2022-09-04T01:18:51.229Z,100.00
2022-09-04T01:23:53.646Z,100.00
2022-09-04T01:29:29.255Z,100.00
2022-09-04T01:34:50.390Z,100.00
2022-09-04T01:40:19.123Z,100.00
2022-09-04T01:45:49.567Z,100.00
2022-09-04T01:50:58.270Z,100.00
2022-09-04T01:56:16.261Z,100.00
2022-09-04T02:01:38.608Z,100.00
2022-09-04T02:07:02.039Z,100.00
2022-09-04T02:12:16.487Z,100.00
2022-09-04T02:17:37.377Z,100.00
2022-09-04T02:22:44.725Z,100.00
2022-09-04T02:28:00.967Z,100.00
2022-09-04T02:33:19.860Z,100.00
2022-09-04T02:38:40.227Z,100.00
2022-09-04T02:43:56.343Z,100.00
2022-09-04T02:49:07.776Z,100.00
2022-09-04T02:54:24.972Z,100.00
2022-09-04T03:00:18.337Z,100.00
2022-09-04T03:05:30.160Z,100.00
2022-09-04T03:10:56.412Z,100.00
2022-09-04T03:16:43.620Z,100.00
2022-09-04T03:21:57.507Z,100.00
2022-09-04T03:27:07.185Z,100.00
2022-09-04T03:32:18.548Z,100.00
2022-09-04T03:37:49.715Z,100.00
2022-09-04T03:42:55.187Z,100.00
2022-09-04T03:48:25.458Z,100.00
2022-09-04T03:53:43.310Z,100.00
2022-09-04T03:59:08.755Z,100.00
2022-09-04T04:04:47.967Z,100.00
2022-09-04T04:10:10.101Z,100.00
2022-09-04T04:15:28.851Z,100.00
2022-09-04T04:21:13.058Z,100.00
2022-09-04T04:26:41.940Z,100.00
2022-09-04T04:32:14.794Z,100.00
2022-09-04T04:37:35.919Z,100.00
2022-09-04T04:42:50.346Z,100.00
2022-09-04T04:48:15.173Z,100.00
2022-09-04T04:53:36.134Z,100.00
2022-09-04T04:58:44.725Z,100.00
2022-09-04T05:03:53.979Z,100.00
2022-09-04T05:09:25.897Z,100.00
2022-09-04T05:15:00.313Z,100.00
2022-09-04T05:20:35.359Z,100.00
2022-09-04T05:25:48.326Z,100.00
2022-09-04T05:31:12.250Z,100.00
2022-09-04T05:36:40.575Z,100.00
2022-09-04T05:41:57.128Z,100.00
2022-09-04T05:47:05.885Z,100.00
2022-09-04T05:52:11.437Z,100.00
2022-09-04T05:57:41.550Z,100.00
2022-09-04T06:02:44.086Z,100.00
2022-09-04T06:08:01.015Z,100.00
2022-09-04T06:13:23.073Z,100.00
2022-09-04T06:18:28.615Z,100.00
2022-09-04T06:23:33.799Z,100.00
2022-09-04T06:28:42.592Z,100.00
2022-09-04T06:34:05.947Z,100.00
2022-09-04T06:39:35.157Z,100.00
2022-09-04T06:44:43.782Z,99.99
2022-09-04T06:50:11.684Z,98.53
2022-09-04T06:55:52.426Z,97.43
2022-09-04T07:01:11.766Z,94.80
2022-09-04T07:06:50.665Z,90.56
2022-09-04T07:12:02.258Z,88.36
2022-09-04T07:17:08.739Z,85.10
2022-09-04T07:22:40.516Z,82.49
2022-09-04T07:27:46.138Z,80.08
2022-09-04T07:33:08.463Z,79.47
2022-09-04T07:38:21.343Z,76.22
2022-09-04T07:43:32.626Z,74.72
2022-09-04T07:48:47.115Z,72.25
2022-09-04T07:54:02.104Z,71.08
2022-09-04T07:59:48.726Z,67.92
2022-09-04T08:05:18.723Z,66.49
2022-09-04T08:10:35.759Z,65.44
2022-09-04T08:15:50.829Z,65.09
2022-09-04T08:21:12.105Z,63.65
2022-09-04T08:26:21.709Z,67.12
2022-09-04T08:32:19.643Z,63.91
2022-09-04T08:37:42.900Z,65.98
2022-09-04T08:42:57.856Z,67.92
2022-09-04T08:48:12.147Z,68.92
2022-09-04T08:53:29.558Z,65.21
2022-09-04T08:58:48.188Z,70.29
2022-09-04T09:04:12.121Z,69.84
2022-09-04T09:09:36.154Z,74.23
2022-09-04T09:15:00.144Z,75.76
2022-09-04T09:20:29.807Z,73.61
2022-09-04T09:25:48.051Z,75.11
2022-09-04T09:31:27.990Z,73.31
2022-09-04T09:37:07.453Z,57.99
2022-09-04T09:42:40.791Z,51.00
2022-09-04T09:48:13.079Z,46.61
2022-09-04T09:53:53.852Z,45.27
2022-09-04T09:59:31.212Z,44.73
2022-09-04T10:04:40.152Z,45.02
2022-09-04T10:10:24.873Z,46.58
2022-09-04T10:15:59.499Z,57.26
2022-09-04T10:21:20.899Z,60.01
2022-09-04T10:27:04.796Z,51.54
2022-09-04T10:32:31.884Z,47.18
2022-09-04T10:38:05.332Z,48.47
2022-09-04T10:43:45.405Z,49.53
2022-09-04T10:48:58.964Z,51.52
2022-09-04T10:54:40.677Z,57.89
2022-09-04T11:00:06.670Z,48.49
2022-09-04T11:05:36.535Z,41.96
2022-09-04T11:11:08.217Z,39.93
2022-09-04T11:16:16.640Z,32.16
2022-09-04T11:21:25.335Z,34.26
2022-09-04T11:26:47.767Z,33.13
2022-09-04T11:32:12.823Z,38.44
2022-09-04T11:37:36.240Z,43.33
2022-09-04T11:43:08.470Z,49.59
2022-09-04T11:48:32.206Z,50.43
2022-09-04T11:53:37.652Z,53.84
2022-09-04T11:59:17.760Z,55.25
2022-09-04T12:04:50.138Z,55.86
2022-09-04T12:09:58.628Z,51.88
2022-09-04T12:15:22.328Z,48.67
2022-09-04T12:20:37.392Z,49.83
2022-09-04T12:26:18.103Z,53.97
2022-09-04T12:31:51.236Z,53.13
2022-09-04T12:37:33.389Z,55.65
2022-09-04T12:43:02.800Z,54.25
2022-09-04T12:48:17.908Z,56.74
2022-09-04T12:53:52.929Z,50.88
2022-09-04T12:58:55.651Z,57.46
2022-09-04T13:04:16.475Z,53.33
2022-09-04T13:09:25.347Z,51.37
2022-09-04T13:14:51.386Z,54.49
2022-09-04T13:20:10.647Z,45.49
2022-09-04T13:25:27.353Z,39.32
2022-09-04T13:30:32.134Z,38.94
2022-09-04T13:35:48.026Z,35.21
2022-09-04T13:41:16.496Z,40.95
2022-09-04T13:46:30.206Z,45.55
2022-09-04T13:51:59.519Z,48.20
2022-09-04T13:57:21.254Z,45.90
2022-09-04T14:02:27.332Z,43.84
2022-09-04T14:07:36.602Z,40.70
2022-09-04T14:13:11.030Z,49.33
2022-09-04T14:18:37.070Z,51.12
2022-09-04T14:23:53.175Z,53.26
2022-09-04T14:29:15.834Z,53.41
2022-09-04T14:35:03.527Z,49.65
2022-09-04T14:40:16.009Z,52.39
2022-09-04T14:45:48.540Z,51.22
2022-09-04T14:51:11.417Z,44.89
2022-09-04T14:56:13.920Z,47.56
2022-09-04T15:01:25.218Z,39.31
2022-09-04T15:07:07.830Z,39.98
2022-09-04T15:12:32.570Z,37.41
2022-09-04T15:17:40.121Z,37.17
2022-09-04T15:22:56.077Z,38.20
2022-09-04T15:28:01.370Z,39.51
2022-09-04T15:33:19.267Z,37.00
2022-09-04T15:38:26.003Z,38.88
2022-09-04T15:43:42.324Z,39.14
2022-09-04T15:48:45.178Z,41.97
2022-09-04T15:54:10.540Z,47.27
2022-09-04T15:59:18.253Z,48.50
2022-09-04T16:04:32.863Z,49.42
2022-09-04T16:09:48.840Z,50.09
2022-09-04T16:15:05.601Z,50.02
2022-09-04T16:20:22.949Z,51.88
2022-09-04T16:25:31.607Z,51.87
2022-09-04T16:31:00.178Z,53.75
2022-09-04T16:36:24.137Z,47.10
2022-09-04T16:41:50.840Z,54.69
2022-09-04T16:47:04.702Z,52.63
2022-09-04T16:52:20.045Z,55.04
2022-09-04T16:57:55.440Z,51.51
2022-09-04T17:03:21.477Z,52.67
2022-09-04T17:08:38.453Z,53.54
2022-09-04T17:13:59.543Z,54.52
2022-09-04T17:19:15.368Z,56.61
2022-09-04T17:29:12.099Z,57.00
2022-09-04T17:30:15.058Z,58.43
2022-09-04T17:40:35.191Z,57.96
2022-09-04T17:41:34.427Z,59.81
2022-09-04T17:46:58.763Z,61.90
2022-09-04T17:52:06.363Z,63.66
2022-09-04T17:57:32.377Z,65.17
2022-09-04T18:03:02.755Z,69.88
2022-09-04T18:08:13.454Z,68.27
2022-09-04T18:13:43.766Z,65.92
2022-09-04T18:18:55.564Z,61.56
2022-09-04T18:23:58.052Z,64.57
2022-09-04T18:30:33.974Z,67.98
2022-09-04T18:37:16.158Z,63.37
2022-09-04T18:41:26.648Z,63.20
2022-09-04T18:50:43.763Z,62.11
2022-09-04T18:51:52.113Z,67.48
2022-09-04T18:57:06.416Z,67.60
2022-09-04T19:02:31.864Z,69.40
2022-09-04T19:07:42.928Z,62.80
2022-09-04T19:12:58.662Z,65.26
2022-09-04T19:18:21.955Z,68.89
2022-09-04T19:23:37.964Z,70.09
2022-09-04T19:28:52.957Z,63.56
2022-09-04T19:34:18.032Z,63.85
2022-09-04T19:45:56.754Z,65.58
2022-09-04T19:46:13.887Z,65.61
2022-09-04T19:53:31.034Z,66.94
2022-09-04T19:56:19.149Z,66.76
2022-09-04T20:01:29.371Z,68.83
2022-09-04T20:06:46.855Z,69.29
2022-09-04T20:12:03.081Z,72.79
2022-09-04T20:17:24.387Z,66.64
2022-09-04T20:22:35.500Z,68.42
2022-09-04T20:27:46.829Z,71.19
2022-09-04T20:33:17.691Z,75.70
2022-09-04T20:38:32.906Z,73.75
2022-09-04T20:43:56.780Z,66.92
2022-09-04T20:52:42.681Z,68.35
2022-09-04T20:54:54.591Z,70.62
2022-09-04T21:03:11.239Z,73.71
2022-09-04T21:06:01.303Z,81.52
2022-09-04T21:11:14.712Z,76.51
2022-09-04T21:17:16.960Z,67.89
2022-09-04T21:22:33.696Z,69.27
2022-09-04T21:27:58.519Z,74.20
2022-09-04T21:33:26.843Z,73.24
2022-09-04T21:39:02.765Z,76.30
2022-09-04T21:44:26.174Z,71.38
2022-09-04T21:49:31.579Z,70.05
2022-09-04T21:59:36.719Z,72.26
2022-09-04T22:02:36.345Z,74.13
2022-09-04T22:05:49.101Z,75.54
2022-09-04T22:13:39.417Z,77.12
2022-09-04T22:17:33.154Z,71.36
2022-09-04T22:22:53.822Z,70.38
2022-09-04T22:28:09.695Z,73.77
2022-09-04T22:33:25.285Z,80.85
2022-09-04T22:38:40.628Z,78.80
2022-09-04T22:44:07.831Z,74.47
2022-09-04T22:49:57.109Z,75.94
2022-09-04T22:55:39.488Z,80.28
2022-09-04T23:01:09.845Z,83.52
2022-09-04T23:11:18.553Z,83.04
2022-09-04T23:13:58.274Z,73.48
2022-09-04T23:20:41.145Z,77.21
2022-09-04T23:26:37.523Z,78.93
2022-09-04T23:28:52.445Z,80.82
2022-09-04T23:34:08.874Z,84.65
2022-09-04T23:39:53.196Z,74.57
2022-09-04T23:45:28.100Z,78.33
2022-09-04T23:50:37.274Z,81.45
2022-09-04T23:56:04.498Z,78.56
